sensor_id;sensor_type;location;lat;lon;timestamp;temperature;humidity
1259;DHT22;619;51.472;6.628;2022-12-18T00:01:05;4.20;81.30
1259;DHT22;619;51.472;6.628;2022-12-18T00:03:35;4.20;80.60
1259;DHT22;619;51.472;6.628;2022-12-18T00:06:01;4.20;80.00
1259;DHT22;619;51.472;6.628;2022-12-18T00:08:27;4.20;79.40
1259;DHT22;619;51.472;6.628;2022-12-18T00:10:53;4.20;78.90
1259;DHT22;619;51.472;6.628;2022-12-18T00:13:21;4.30;78.50
1259;DHT22;619;51.472;6.628;2022-12-18T00:15:46;4.20;78.00
1259;DHT22;619;51.472;6.628;2022-12-18T00:18:14;4.20;77.70
1259;DHT22;619;51.472;6.628;2022-12-18T00:20:40;4.20;77.40
1259;DHT22;619;51.472;6.628;2022-12-18T00:23:09;4.20;77.30
1259;DHT22;619;51.472;6.628;2022-12-18T00:25:37;4.20;77.20
1259;DHT22;619;51.472;6.628;2022-12-18T00:28:03;4.20;77.00
1259;DHT22;619;51.472;6.628;2022-12-18T00:30:31;4.20;76.80
1259;DHT22;619;51.472;6.628;2022-12-18T00:32:57;4.20;76.60
1259;DHT22;619;51.472;6.628;2022-12-18T00:35:25;4.10;76.30
1259;DHT22;619;51.472;6.628;2022-12-18T00:37:51;4.10;76.20
1259;DHT22;619;51.472;6.628;2022-12-18T00:40:16;4.10;76.00
1259;DHT22;619;51.472;6.628;2022-12-18T00:42:42;4.10;75.80
1259;DHT22;619;51.472;6.628;2022-12-18T00:45:28;4.10;75.80
1259;DHT22;619;51.472;6.628;2022-12-18T00:47:55;4.00;75.60
1259;DHT22;619;51.472;6.628;2022-12-18T00:50:22;4.00;75.70
1259;DHT22;619;51.472;6.628;2022-12-18T00:52:48;4.00;75.50
1259;DHT22;619;51.472;6.628;2022-12-18T00:55:21;4.00;75.50
1259;DHT22;619;51.472;6.628;2022-12-18T00:57:47;4.00;75.40
1259;DHT22;619;51.472;6.628;2022-12-18T01:00:16;3.90;75.30
1259;DHT22;619;51.472;6.628;2022-12-18T01:02:42;3.90;75.20
1259;DHT22;619;51.472;6.628;2022-12-18T01:05:12;3.90;75.30
1259;DHT22;619;51.472;6.628;2022-12-18T01:07:40;3.90;75.10
1259;DHT22;619;51.472;6.628;2022-12-18T01:10:06;3.90;75.00
1259;DHT22;619;51.472;6.628;2022-12-18T01:12:35;3.90;74.90
1259;DHT22;619;51.472;6.628;2022-12-18T01:15:05;3.90;74.80
1259;DHT22;619;51.472;6.628;2022-12-18T01:17:33;3.90;74.70
1259;DHT22;619;51.472;6.628;2022-12-18T01:20:02;3.90;74.60
1259;DHT22;619;51.472;6.628;2022-12-18T01:22:27;3.90;74.50
1259;DHT22;619;51.472;6.628;2022-12-18T01:24:53;3.90;74.40
1259;DHT22;619;51.472;6.628;2022-12-18T01:27:23;3.90;74.30
1259;DHT22;619;51.472;6.628;2022-12-18T01:29:49;3.90;74.30
1259;DHT22;619;51.472;6.628;2022-12-18T01:32:15;3.90;74.30
1259;DHT22;619;51.472;6.628;2022-12-18T01:34:40;3.90;74.20
1259;DHT22;619;51.472;6.628;2022-12-18T01:37:10;3.90;74.00
1259;DHT22;619;51.472;6.628;2022-12-18T01:39:36;3.80;73.80
1259;DHT22;619;51.472;6.628;2022-12-18T01:42:13;3.80;73.70
1259;DHT22;619;51.472;6.628;2022-12-18T01:47:40;3.80;73.60
1259;DHT22;619;51.472;6.628;2022-12-18T01:52:47;3.70;73.50
1259;DHT22;619;51.472;6.628;2022-12-18T01:55:20;3.70;73.40
1259;DHT22;619;51.472;6.628;2022-12-18T01:57:47;3.60;73.30
1259;DHT22;619;51.472;6.628;2022-12-18T02:00:16;3.60;73.40
1259;DHT22;619;51.472;6.628;2022-12-18T02:02:43;3.60;73.70
1259;DHT22;619;51.472;6.628;2022-12-18T02:05:11;3.50;73.90
1259;DHT22;619;51.472;6.628;2022-12-18T02:16:01;3.40;74.50
1259;DHT22;619;51.472;6.628;2022-12-18T02:18:42;3.40;74.50
1259;DHT22;619;51.472;6.628;2022-12-18T02:21:18;3.40;74.60
1259;DHT22;619;51.472;6.628;2022-12-18T02:26:46;3.40;74.50
1259;DHT22;619;51.472;6.628;2022-12-18T02:29:40;3.40;74.40
1259;DHT22;619;51.472;6.628;2022-12-18T02:32:11;3.40;74.40
1259;DHT22;619;51.472;6.628;2022-12-18T02:34:40;3.50;74.40
1259;DHT22;619;51.472;6.628;2022-12-18T02:37:11;3.50;74.30
1259;DHT22;619;51.472;6.628;2022-12-18T02:39:39;3.50;74.20
1259;DHT22;619;51.472;6.628;2022-12-18T02:42:06;3.50;74.20
1259;DHT22;619;51.472;6.628;2022-12-18T02:44:45;3.50;74.20
1259;DHT22;619;51.472;6.628;2022-12-18T02:47:12;3.50;74.20
1259;DHT22;619;51.472;6.628;2022-12-18T02:50:06;3.50;74.10
1259;DHT22;619;51.472;6.628;2022-12-18T02:58:16;3.60;73.80
1259;DHT22;619;51.472;6.628;2022-12-18T03:03:25;3.60;73.70
1259;DHT22;619;51.472;6.628;2022-12-18T03:05:57;3.60;73.70
1259;DHT22;619;51.472;6.628;2022-12-18T03:08:31;3.60;73.70
1259;DHT22;619;51.472;6.628;2022-12-18T03:11:11;3.60;73.60
1259;DHT22;619;51.472;6.628;2022-12-18T03:13:43;3.60;73.60
1259;DHT22;619;51.472;6.628;2022-12-18T03:16:14;3.60;73.60
1259;DHT22;619;51.472;6.628;2022-12-18T03:21:22;3.60;73.50
1259;DHT22;619;51.472;6.628;2022-12-18T03:23:55;3.60;73.40
1259;DHT22;619;51.472;6.628;2022-12-18T03:26:27;3.60;73.30
1259;DHT22;619;51.472;6.628;2022-12-18T03:28:57;3.60;73.40
1259;DHT22;619;51.472;6.628;2022-12-18T03:31:28;3.70;73.40
1259;DHT22;619;51.472;6.628;2022-12-18T03:33:58;3.70;73.30
1259;DHT22;619;51.472;6.628;2022-12-18T03:36:27;3.60;73.10
1259;DHT22;619;51.472;6.628;2022-12-18T03:38:57;3.70;73.20
1259;DHT22;619;51.472;6.628;2022-12-18T03:44:29;3.60;73.10
1259;DHT22;619;51.472;6.628;2022-12-18T03:49:38;3.60;73.30
1259;DHT22;619;51.472;6.628;2022-12-18T03:52:09;3.60;73.40
1259;DHT22;619;51.472;6.628;2022-12-18T03:54:37;3.60;73.50
1259;DHT22;619;51.472;6.628;2022-12-18T03:57:13;3.60;73.50
1259;DHT22;619;51.472;6.628;2022-12-18T03:59:43;3.60;73.40
1259;DHT22;619;51.472;6.628;2022-12-18T04:02:10;3.60;73.50
1259;DHT22;619;51.472;6.628;2022-12-18T04:04:37;3.60;73.70
1259;DHT22;619;51.472;6.628;2022-12-18T04:07:04;3.60;73.70
1259;DHT22;619;51.472;6.628;2022-12-18T04:09:34;3.60;73.70
1259;DHT22;619;51.472;6.628;2022-12-18T04:12:01;3.60;73.90
1259;DHT22;619;51.472;6.628;2022-12-18T04:14:29;3.60;74.00
1259;DHT22;619;51.472;6.628;2022-12-18T04:16:54;3.60;74.00
1259;DHT22;619;51.472;6.628;2022-12-18T04:19:20;3.60;73.90
1259;DHT22;619;51.472;6.628;2022-12-18T04:21:48;3.60;73.80
1259;DHT22;619;51.472;6.628;2022-12-18T04:24:13;3.60;73.90
1259;DHT22;619;51.472;6.628;2022-12-18T04:26:44;3.70;73.90
1259;DHT22;619;51.472;6.628;2022-12-18T04:29:10;3.70;73.80
1259;DHT22;619;51.472;6.628;2022-12-18T04:31:35;3.70;73.70
1259;DHT22;619;51.472;6.628;2022-12-18T04:34:01;3.70;73.70
1259;DHT22;619;51.472;6.628;2022-12-18T04:36:27;3.70;73.70
1259;DHT22;619;51.472;6.628;2022-12-18T04:38:53;3.70;73.60
1259;DHT22;619;51.472;6.628;2022-12-18T04:41:18;3.80;73.70
1259;DHT22;619;51.472;6.628;2022-12-18T04:43:44;3.80;73.70
1259;DHT22;619;51.472;6.628;2022-12-18T04:46:12;3.80;73.70
1259;DHT22;619;51.472;6.628;2022-12-18T04:48:38;3.80;73.60
1259;DHT22;619;51.472;6.628;2022-12-18T04:51:05;3.80;73.50
1259;DHT22;619;51.472;6.628;2022-12-18T04:53:33;3.90;73.50
1259;DHT22;619;51.472;6.628;2022-12-18T04:56:08;3.90;73.40
1259;DHT22;619;51.472;6.628;2022-12-18T04:58:34;3.90;73.20
1259;DHT22;619;51.472;6.628;2022-12-18T05:01:00;3.90;73.20
1259;DHT22;619;51.472;6.628;2022-12-18T05:03:26;3.90;73.10
1259;DHT22;619;51.472;6.628;2022-12-18T05:05:52;4.00;73.20
1259;DHT22;619;51.472;6.628;2022-12-18T05:08:20;4.00;73.20
1259;DHT22;619;51.472;6.628;2022-12-18T05:10:46;4.00;73.00
1259;DHT22;619;51.472;6.628;2022-12-18T05:13:12;4.00;72.90
1259;DHT22;619;51.472;6.628;2022-12-18T05:15:37;4.00;72.70
1259;DHT22;619;51.472;6.628;2022-12-18T05:18:11;4.00;72.60
1259;DHT22;619;51.472;6.628;2022-12-18T05:20:36;4.00;72.50
1259;DHT22;619;51.472;6.628;2022-12-18T05:23:05;4.00;72.50
1259;DHT22;619;51.472;6.628;2022-12-18T05:25:30;4.00;72.40
1259;DHT22;619;51.472;6.628;2022-12-18T05:27:56;4.10;72.30
1259;DHT22;619;51.472;6.628;2022-12-18T05:30:24;4.10;72.20
1259;DHT22;619;51.472;6.628;2022-12-18T05:32:50;4.10;72.10
1259;DHT22;619;51.472;6.628;2022-12-18T05:35:15;4.10;72.10
1259;DHT22;619;51.472;6.628;2022-12-18T05:37:41;4.10;72.00
1259;DHT22;619;51.472;6.628;2022-12-18T05:40:07;4.10;71.80
1259;DHT22;619;51.472;6.628;2022-12-18T05:42:33;4.00;71.60
1259;DHT22;619;51.472;6.628;2022-12-18T05:44:59;4.00;71.70
1259;DHT22;619;51.472;6.628;2022-12-18T05:47:24;4.00;71.70
1259;DHT22;619;51.472;6.628;2022-12-18T05:49:50;4.00;71.70
1259;DHT22;619;51.472;6.628;2022-12-18T05:52:16;4.00;71.70
1259;DHT22;619;51.472;6.628;2022-12-18T05:54:44;4.00;71.60
1259;DHT22;619;51.472;6.628;2022-12-18T05:57:10;3.90;71.30
1259;DHT22;619;51.472;6.628;2022-12-18T05:59:36;3.90;71.20
1259;DHT22;619;51.472;6.628;2022-12-18T06:02:04;3.90;71.20
1259;DHT22;619;51.472;6.628;2022-12-18T06:04:30;3.90;71.30
1259;DHT22;619;51.472;6.628;2022-12-18T06:06:56;3.80;71.20
1259;DHT22;619;51.472;6.628;2022-12-18T06:09:22;3.80;71.20
1259;DHT22;619;51.472;6.628;2022-12-18T06:11:48;3.70;71.20
1259;DHT22;619;51.472;6.628;2022-12-18T06:14:16;3.70;71.60
1259;DHT22;619;51.472;6.628;2022-12-18T06:16:42;3.60;71.90
1259;DHT22;619;51.472;6.628;2022-12-18T06:19:12;3.60;72.20
1259;DHT22;619;51.472;6.628;2022-12-18T06:21:39;3.60;72.30
1259;DHT22;619;51.472;6.628;2022-12-18T06:24:05;3.60;72.40
1259;DHT22;619;51.472;6.628;2022-12-18T06:26:30;3.60;72.50
1259;DHT22;619;51.472;6.628;2022-12-18T06:28:56;3.60;73.30
1259;DHT22;619;51.472;6.628;2022-12-18T06:31:22;3.50;72.50
1259;DHT22;619;51.472;6.628;2022-12-18T06:33:48;3.50;72.60
1259;DHT22;619;51.472;6.628;2022-12-18T06:36:14;3.50;72.70
1259;DHT22;619;51.472;6.628;2022-12-18T06:38:41;3.60;72.80
1259;DHT22;619;51.472;6.628;2022-12-18T06:41:13;3.50;72.80
1259;DHT22;619;51.472;6.628;2022-12-18T06:43:39;3.50;72.70
1259;DHT22;619;51.472;6.628;2022-12-18T06:46:05;3.60;72.80
1259;DHT22;619;51.472;6.628;2022-12-18T06:48:32;3.60;72.70
1259;DHT22;619;51.472;6.628;2022-12-18T06:51:01;3.60;72.50
1259;DHT22;619;51.472;6.628;2022-12-18T06:53:27;3.60;72.40
1259;DHT22;619;51.472;6.628;2022-12-18T06:55:59;3.60;72.20
1259;DHT22;619;51.472;6.628;2022-12-18T06:58:24;3.60;72.10
1259;DHT22;619;51.472;6.628;2022-12-18T07:00:50;3.60;72.10
1259;DHT22;619;51.472;6.628;2022-12-18T07:03:16;3.60;72.20
1259;DHT22;619;51.472;6.628;2022-12-18T07:05:43;3.60;72.40
1259;DHT22;619;51.472;6.628;2022-12-18T07:08:09;3.60;72.50
1259;DHT22;619;51.472;6.628;2022-12-18T07:10:55;3.60;72.60
1259;DHT22;619;51.472;6.628;2022-12-18T07:13:21;3.60;72.70
1259;DHT22;619;51.472;6.628;2022-12-18T07:15:49;3.60;72.60
1259;DHT22;619;51.472;6.628;2022-12-18T07:18:15;3.60;72.60
1259;DHT22;619;51.472;6.628;2022-12-18T07:20:40;3.60;72.60
1259;DHT22;619;51.472;6.628;2022-12-18T07:23:08;3.70;72.70
1259;DHT22;619;51.472;6.628;2022-12-18T07:25:35;3.70;72.70
1259;DHT22;619;51.472;6.628;2022-12-18T07:28:01;3.70;72.60
1259;DHT22;619;51.472;6.628;2022-12-18T07:30:30;3.80;72.60
1259;DHT22;619;51.472;6.628;2022-12-18T07:33:00;3.80;72.50
1259;DHT22;619;51.472;6.628;2022-12-18T07:35:26;3.80;72.40
1259;DHT22;619;51.472;6.628;2022-12-18T07:37:51;3.80;72.20
1259;DHT22;619;51.472;6.628;2022-12-18T07:40:17;3.80;72.10
1259;DHT22;619;51.472;6.628;2022-12-18T07:42:43;3.80;72.10
1259;DHT22;619;51.472;6.628;2022-12-18T07:45:09;3.80;72.00
1259;DHT22;619;51.472;6.628;2022-12-18T07:47:35;3.90;71.90
1259;DHT22;619;51.472;6.628;2022-12-18T07:50:06;3.90;71.80
1259;DHT22;619;51.472;6.628;2022-12-18T07:52:32;3.90;71.70
1259;DHT22;619;51.472;6.628;2022-12-18T07:54:58;4.00;71.70
1259;DHT22;619;51.472;6.628;2022-12-18T07:57:24;4.00;71.50
1259;DHT22;619;51.472;6.628;2022-12-18T07:59:50;4.00;71.50
1259;DHT22;619;51.472;6.628;2022-12-18T08:02:15;4.00;71.40
1259;DHT22;619;51.472;6.628;2022-12-18T08:04:43;4.10;71.30
1259;DHT22;619;51.472;6.628;2022-12-18T08:07:11;4.10;71.40
1259;DHT22;619;51.472;6.628;2022-12-18T08:09:37;4.10;71.40
1259;DHT22;619;51.472;6.628;2022-12-18T08:12:03;4.10;71.40
1259;DHT22;619;51.472;6.628;2022-12-18T08:14:29;4.20;71.40
1259;DHT22;619;51.472;6.628;2022-12-18T08:16:54;4.20;71.40
1259;DHT22;619;51.472;6.628;2022-12-18T08:19:20;4.20;71.30
1259;DHT22;619;51.472;6.628;2022-12-18T08:21:46;4.30;71.40
1259;DHT22;619;51.472;6.628;2022-12-18T08:24:11;4.30;71.20
1259;DHT22;619;51.472;6.628;2022-12-18T08:26:37;4.40;71.20
1259;DHT22;619;51.472;6.628;2022-12-18T08:29:03;4.40;70.90
1259;DHT22;619;51.472;6.628;2022-12-18T08:31:29;4.50;70.80
1259;DHT22;619;51.472;6.628;2022-12-18T08:33:56;4.60;70.80
1259;DHT22;619;51.472;6.628;2022-12-18T08:36:23;4.60;70.40
1259;DHT22;619;51.472;6.628;2022-12-18T08:38:49;4.70;70.20
1259;DHT22;619;51.472;6.628;2022-12-18T08:41:16;4.80;70.00
1259;DHT22;619;51.472;6.628;2022-12-18T08:43:42;4.80;69.50
1259;DHT22;619;51.472;6.628;2022-12-18T08:46:30;4.90;69.40
1259;DHT22;619;51.472;6.628;2022-12-18T08:48:58;5.00;69.20
1259;DHT22;619;51.472;6.628;2022-12-18T08:51:26;5.10;69.00
1259;DHT22;619;51.472;6.628;2022-12-18T08:53:54;5.20;69.00
1259;DHT22;619;51.472;6.628;2022-12-18T08:56:20;5.20;68.70
1259;DHT22;619;51.472;6.628;2022-12-18T08:58:46;5.30;68.50
1259;DHT22;619;51.472;6.628;2022-12-18T09:01:15;5.40;68.30
1259;DHT22;619;51.472;6.628;2022-12-18T09:03:40;5.50;68.10
1259;DHT22;619;51.472;6.628;2022-12-18T09:06:09;5.60;67.80
1259;DHT22;619;51.472;6.628;2022-12-18T09:08:38;5.70;67.50
1259;DHT22;619;51.472;6.628;2022-12-18T09:11:09;5.80;67.20
1259;DHT22;619;51.472;6.628;2022-12-18T09:13:37;5.80;66.80
1259;DHT22;619;51.472;6.628;2022-12-18T09:16:09;5.90;66.50
1259;DHT22;619;51.472;6.628;2022-12-18T09:18:35;6.00;66.40
1259;DHT22;619;51.472;6.628;2022-12-18T09:21:08;6.10;66.20
1259;DHT22;619;51.472;6.628;2022-12-18T09:23:34;6.10;66.70
1259;DHT22;619;51.472;6.628;2022-12-18T09:25:59;6.20;65.90
1259;DHT22;619;51.472;6.628;2022-12-18T09:28:25;6.30;65.80
1259;DHT22;619;51.472;6.628;2022-12-18T09:30:51;6.30;65.40
1259;DHT22;619;51.472;6.628;2022-12-18T09:33:17;6.40;65.20
1259;DHT22;619;51.472;6.628;2022-12-18T09:35:44;6.40;65.60
1259;DHT22;619;51.472;6.628;2022-12-18T09:38:19;6.50;64.60
1259;DHT22;619;51.472;6.628;2022-12-18T09:40:50;6.50;64.40
1259;DHT22;619;51.472;6.628;2022-12-18T09:43:29;6.60;63.80
1259;DHT22;619;51.472;6.628;2022-12-18T09:46:04;6.60;63.70
1259;DHT22;619;51.472;6.628;2022-12-18T09:48:35;6.70;63.50
1259;DHT22;619;51.472;6.628;2022-12-18T09:51:27;6.70;63.40
1259;DHT22;619;51.472;6.628;2022-12-18T09:53:58;6.80;63.30
1259;DHT22;619;51.472;6.628;2022-12-18T09:56:30;6.90;63.10
1259;DHT22;619;51.472;6.628;2022-12-18T09:59:03;7.00;63.10
1259;DHT22;619;51.472;6.628;2022-12-18T10:01:30;7.10;63.10
1259;DHT22;619;51.472;6.628;2022-12-18T10:03:56;7.20;62.80
1259;DHT22;619;51.472;6.628;2022-12-18T10:12:41;7.40;61.20
1259;DHT22;619;51.472;6.628;2022-12-18T10:15:34;7.50;60.70
1259;DHT22;619;51.472;6.628;2022-12-18T10:20:53;7.80;60.40
1259;DHT22;619;51.472;6.628;2022-12-18T10:23:41;7.80;60.30
1259;DHT22;619;51.472;6.628;2022-12-18T10:26:12;7.90;60.20
1259;DHT22;619;51.472;6.628;2022-12-18T10:28:39;8.00;59.70
1259;DHT22;619;51.472;6.628;2022-12-18T10:31:19;8.00;59.70
1259;DHT22;619;51.472;6.628;2022-12-18T10:33:45;8.00;59.50
1259;DHT22;619;51.472;6.628;2022-12-18T10:36:11;8.00;59.10
1259;DHT22;619;51.472;6.628;2022-12-18T10:38:40;8.00;59.00
1259;DHT22;619;51.472;6.628;2022-12-18T10:44:21;8.00;58.70
1259;DHT22;619;51.472;6.628;2022-12-18T10:46:54;8.00;58.50
1259;DHT22;619;51.472;6.628;2022-12-18T10:49:29;8.00;58.60
1259;DHT22;619;51.472;6.628;2022-12-18T10:54:37;8.10;58.50
1259;DHT22;619;51.472;6.628;2022-12-18T10:57:39;8.10;58.60
1259;DHT22;619;51.472;6.628;2022-12-18T11:02:50;8.20;58.40
1259;DHT22;619;51.472;6.628;2022-12-18T11:07:53;8.40;58.40
1259;DHT22;619;51.472;6.628;2022-12-18T11:10:32;8.50;58.20
1259;DHT22;619;51.472;6.628;2022-12-18T11:13:16;8.50;58.00
1259;DHT22;619;51.472;6.628;2022-12-18T11:15:43;8.60;57.80
1259;DHT22;619;51.472;6.628;2022-12-18T11:18:22;8.70;57.90
1259;DHT22;619;51.472;6.628;2022-12-18T11:21:05;8.80;57.90
1259;DHT22;619;51.472;6.628;2022-12-18T11:23:31;8.90;57.80
1259;DHT22;619;51.472;6.628;2022-12-18T11:26:02;9.00;57.70
1259;DHT22;619;51.472;6.628;2022-12-18T11:28:36;9.10;57.70
1259;DHT22;619;51.472;6.628;2022-12-18T11:31:28;9.10;57.30
1259;DHT22;619;51.472;6.628;2022-12-18T11:36:38;9.30;56.90
1259;DHT22;619;51.472;6.628;2022-12-18T11:47:19;9.60;56.40
1259;DHT22;619;51.472;6.628;2022-12-18T11:49:49;9.60;56.30
1259;DHT22;619;51.472;6.628;2022-12-18T11:52:25;9.50;56.20
1259;DHT22;619;51.472;6.628;2022-12-18T11:54:58;9.50;56.30
1259;DHT22;619;51.472;6.628;2022-12-18T12:00:12;9.40;56.20
1259;DHT22;619;51.472;6.628;2022-12-18T12:13:48;9.00;56.30
1259;DHT22;619;51.472;6.628;2022-12-18T12:19:21;9.00;56.40
1259;DHT22;619;51.472;6.628;2022-12-18T12:22:03;9.00;56.30
1259;DHT22;619;51.472;6.628;2022-12-18T12:27:36;9.00;56.40
1259;DHT22;619;51.472;6.628;2022-12-18T12:30:21;8.90;56.40
1259;DHT22;619;51.472;6.628;2022-12-18T12:38:45;9.00;56.80
1259;DHT22;619;51.472;6.628;2022-12-18T12:41:18;9.00;57.30
1259;DHT22;619;51.472;6.628;2022-12-18T12:46:55;9.00;56.70
1259;DHT22;619;51.472;6.628;2022-12-18T12:49:26;9.00;56.50
1259;DHT22;619;51.472;6.628;2022-12-18T12:52:17;9.00;56.50
1259;DHT22;619;51.472;6.628;2022-12-18T12:54:46;9.00;56.60
1259;DHT22;619;51.472;6.628;2022-12-18T12:57:31;9.10;56.60
1259;DHT22;619;51.472;6.628;2022-12-18T13:00:17;9.00;56.50
1259;DHT22;619;51.472;6.628;2022-12-18T13:05:49;9.10;57.70
1259;DHT22;619;51.472;6.628;2022-12-18T13:10:54;9.30;56.70
1259;DHT22;619;51.472;6.628;2022-12-18T13:13:56;9.30;56.40
1259;DHT22;619;51.472;6.628;2022-12-18T13:16:28;9.20;55.90
1259;DHT22;619;51.472;6.628;2022-12-18T13:18:56;9.20;56.00
1259;DHT22;619;51.472;6.628;2022-12-18T13:21:32;9.10;55.80
1259;DHT22;619;51.472;6.628;2022-12-18T13:24:36;9.00;55.80
1259;DHT22;619;51.472;6.628;2022-12-18T13:38:33;8.60;55.80
1259;DHT22;619;51.472;6.628;2022-12-18T13:46:22;8.40;56.10
1259;DHT22;619;51.472;6.628;2022-12-18T13:49:20;8.30;56.20
1259;DHT22;619;51.472;6.628;2022-12-18T13:51:49;8.20;56.00
1259;DHT22;619;51.472;6.628;2022-12-18T13:54:36;8.10;56.10
1259;DHT22;619;51.472;6.628;2022-12-18T13:57:22;8.10;56.30
1259;DHT22;619;51.472;6.628;2022-12-18T13:59:51;8.10;56.60
1259;DHT22;619;51.472;6.628;2022-12-18T14:02:22;8.00;56.70
1259;DHT22;619;51.472;6.628;2022-12-18T14:04:50;8.00;56.90
1259;DHT22;619;51.472;6.628;2022-12-18T14:07:27;8.00;57.20
1259;DHT22;619;51.472;6.628;2022-12-18T14:09:55;8.00;57.20
1259;DHT22;619;51.472;6.628;2022-12-18T14:12:31;8.10;57.20
1259;DHT22;619;51.472;6.628;2022-12-18T14:15:32;8.10;57.00
1259;DHT22;619;51.472;6.628;2022-12-18T14:21:25;8.10;56.90
1259;DHT22;619;51.472;6.628;2022-12-18T14:24:19;8.00;56.70
1259;DHT22;619;51.472;6.628;2022-12-18T14:26:51;8.00;56.80
1259;DHT22;619;51.472;6.628;2022-12-18T14:34:35;7.90;57.00
1259;DHT22;619;51.472;6.628;2022-12-18T14:37:01;7.90;57.30
1259;DHT22;619;51.472;6.628;2022-12-18T14:39:26;7.90;57.30
1259;DHT22;619;51.472;6.628;2022-12-18T14:41:52;7.90;57.30
1259;DHT22;619;51.472;6.628;2022-12-18T14:44:18;7.90;57.40
1259;DHT22;619;51.472;6.628;2022-12-18T14:46:45;7.80;57.40
1259;DHT22;619;51.472;6.628;2022-12-18T14:49:21;7.80;57.50
1259;DHT22;619;51.472;6.628;2022-12-18T14:51:51;7.80;57.50
1259;DHT22;619;51.472;6.628;2022-12-18T14:54:21;7.70;57.50
1259;DHT22;619;51.472;6.628;2022-12-18T14:56:49;7.70;57.60
1259;DHT22;619;51.472;6.628;2022-12-18T14:59:20;7.70;57.60
1259;DHT22;619;51.472;6.628;2022-12-18T15:04:28;7.70;58.00
1259;DHT22;619;51.472;6.628;2022-12-18T15:07:14;7.80;58.00
1259;DHT22;619;51.472;6.628;2022-12-18T15:09:41;7.70;58.00
1259;DHT22;619;51.472;6.628;2022-12-18T15:12:25;7.70;58.10
1259;DHT22;619;51.472;6.628;2022-12-18T15:14:51;7.70;57.90
1259;DHT22;619;51.472;6.628;2022-12-18T15:17:22;7.70;57.90
1259;DHT22;619;51.472;6.628;2022-12-18T15:19:51;7.70;57.90
1259;DHT22;619;51.472;6.628;2022-12-18T15:22:29;7.70;57.90
1259;DHT22;619;51.472;6.628;2022-12-18T15:24:57;7.60;57.70
1259;DHT22;619;51.472;6.628;2022-12-18T15:27:36;7.60;57.60
1259;DHT22;619;51.472;6.628;2022-12-18T15:32:36;7.50;57.80
1259;DHT22;619;51.472;6.628;2022-12-18T15:35:08;7.40;57.90
1259;DHT22;619;51.472;6.628;2022-12-18T15:37:37;7.40;58.00
1259;DHT22;619;51.472;6.628;2022-12-18T15:40:03;7.40;58.10
1259;DHT22;619;51.472;6.628;2022-12-18T15:42:29;7.30;58.20
1259;DHT22;619;51.472;6.628;2022-12-18T15:45:14;7.30;58.30
1259;DHT22;619;51.472;6.628;2022-12-18T15:47:42;7.20;58.40
1259;DHT22;619;51.472;6.628;2022-12-18T15:50:08;7.20;58.40
1259;DHT22;619;51.472;6.628;2022-12-18T15:52:43;7.20;58.50
1259;DHT22;619;51.472;6.628;2022-12-18T15:58:07;7.20;58.60
1259;DHT22;619;51.472;6.628;2022-12-18T16:00:34;7.20;58.60
1259;DHT22;619;51.472;6.628;2022-12-18T16:03:00;7.10;58.70
1259;DHT22;619;51.472;6.628;2022-12-18T16:05:27;7.20;58.80
1259;DHT22;619;51.472;6.628;2022-12-18T16:07:52;7.10;58.80
1259;DHT22;619;51.472;6.628;2022-12-18T16:10:18;7.00;58.80
1259;DHT22;619;51.472;6.628;2022-12-18T16:12:44;7.00;58.90
1259;DHT22;619;51.472;6.628;2022-12-18T16:15:12;7.00;59.00
1259;DHT22;619;51.472;6.628;2022-12-18T16:17:40;7.00;59.10
1259;DHT22;619;51.472;6.628;2022-12-18T16:20:14;7.00;59.10
1259;DHT22;619;51.472;6.628;2022-12-18T16:22:41;7.00;59.20
1259;DHT22;619;51.472;6.628;2022-12-18T16:25:18;7.00;59.30
1259;DHT22;619;51.472;6.628;2022-12-18T16:27:44;7.00;59.30
1259;DHT22;619;51.472;6.628;2022-12-18T16:30:18;6.90;59.40
1259;DHT22;619;51.472;6.628;2022-12-18T16:32:44;6.90;59.40
1259;DHT22;619;51.472;6.628;2022-12-18T16:35:14;6.90;59.50
1259;DHT22;619;51.472;6.628;2022-12-18T16:37:40;6.90;59.70
1259;DHT22;619;51.472;6.628;2022-12-18T16:40:08;6.90;59.90
1259;DHT22;619;51.472;6.628;2022-12-18T16:42:35;6.90;60.00
1259;DHT22;619;51.472;6.628;2022-12-18T16:45:02;6.90;60.10
1259;DHT22;619;51.472;6.628;2022-12-18T16:47:28;6.80;60.10
1259;DHT22;619;51.472;6.628;2022-12-18T16:49:54;6.80;60.20
1259;DHT22;619;51.472;6.628;2022-12-18T16:52:20;6.80;60.30
1259;DHT22;619;51.472;6.628;2022-12-18T16:54:46;6.80;60.40
1259;DHT22;619;51.472;6.628;2022-12-18T16:57:13;6.80;60.60
1259;DHT22;619;51.472;6.628;2022-12-18T16:59:42;6.70;60.60
1259;DHT22;619;51.472;6.628;2022-12-18T17:02:18;6.80;60.80
1259;DHT22;619;51.472;6.628;2022-12-18T17:04:45;6.80;61.00
1259;DHT22;619;51.472;6.628;2022-12-18T17:07:11;6.70;61.00
1259;DHT22;619;51.472;6.628;2022-12-18T17:09:37;6.70;61.20
1259;DHT22;619;51.472;6.628;2022-12-18T17:12:06;6.70;61.40
1259;DHT22;619;51.472;6.628;2022-12-18T17:14:35;6.70;61.60
1259;DHT22;619;51.472;6.628;2022-12-18T17:17:01;6.70;61.80
1259;DHT22;619;51.472;6.628;2022-12-18T17:19:28;6.70;61.90
1259;DHT22;619;51.472;6.628;2022-12-18T17:21:54;6.70;62.00
1259;DHT22;619;51.472;6.628;2022-12-18T17:24:20;6.70;62.10
1259;DHT22;619;51.472;6.628;2022-12-18T17:26:46;6.60;62.30
1259;DHT22;619;51.472;6.628;2022-12-18T17:29:18;6.60;62.50
1259;DHT22;619;51.472;6.628;2022-12-18T17:31:44;6.60;62.70
1259;DHT22;619;51.472;6.628;2022-12-18T17:34:11;6.60;62.80
1259;DHT22;619;51.472;6.628;2022-12-18T17:36:37;6.60;62.90
1259;DHT22;619;51.472;6.628;2022-12-18T17:39:04;6.60;63.20
1259;DHT22;619;51.472;6.628;2022-12-18T17:41:31;6.60;63.40
1259;DHT22;619;51.472;6.628;2022-12-18T17:44:01;6.60;63.40
1259;DHT22;619;51.472;6.628;2022-12-18T17:46:28;6.60;63.50
1259;DHT22;619;51.472;6.628;2022-12-18T17:48:58;6.60;63.60
1259;DHT22;619;51.472;6.628;2022-12-18T17:51:24;6.60;63.80
1259;DHT22;619;51.472;6.628;2022-12-18T17:53:50;6.60;64.80
1259;DHT22;619;51.472;6.628;2022-12-18T17:56:21;6.60;64.10
1259;DHT22;619;51.472;6.628;2022-12-18T17:58:49;6.60;64.10
1259;DHT22;619;51.472;6.628;2022-12-18T18:01:20;6.60;64.20
1259;DHT22;619;51.472;6.628;2022-12-18T18:03:46;6.60;64.30
1259;DHT22;619;51.472;6.628;2022-12-18T18:06:12;6.60;64.30
1259;DHT22;619;51.472;6.628;2022-12-18T18:08:40;6.60;64.40
1259;DHT22;619;51.472;6.628;2022-12-18T18:11:09;6.50;64.50
1259;DHT22;619;51.472;6.628;2022-12-18T18:13:53;6.50;64.50
1259;DHT22;619;51.472;6.628;2022-12-18T18:16:27;6.60;64.70
1259;DHT22;619;51.472;6.628;2022-12-18T18:18:56;6.60;64.60
1259;DHT22;619;51.472;6.628;2022-12-18T18:21:22;6.60;64.60
1259;DHT22;619;51.472;6.628;2022-12-18T18:23:48;6.60;64.70
1259;DHT22;619;51.472;6.628;2022-12-18T18:26:18;6.60;64.80
1259;DHT22;619;51.472;6.628;2022-12-18T18:28:48;6.60;64.80
1259;DHT22;619;51.472;6.628;2022-12-18T18:31:17;6.60;64.80
1259;DHT22;619;51.472;6.628;2022-12-18T18:33:45;6.60;64.70
1259;DHT22;619;51.472;6.628;2022-12-18T18:36:13;6.60;64.60
1259;DHT22;619;51.472;6.628;2022-12-18T18:38:39;6.60;64.50
1259;DHT22;619;51.472;6.628;2022-12-18T18:41:05;6.50;64.60
1259;DHT22;619;51.472;6.628;2022-12-18T18:43:31;6.50;64.60
1259;DHT22;619;51.472;6.628;2022-12-18T18:45:58;6.50;64.80
1259;DHT22;619;51.472;6.628;2022-12-18T18:48:26;6.50;64.90
1259;DHT22;619;51.472;6.628;2022-12-18T18:50:59;6.50;65.00
1259;DHT22;619;51.472;6.628;2022-12-18T18:53:25;6.50;65.00
1259;DHT22;619;51.472;6.628;2022-12-18T18:55:53;6.50;65.00
1259;DHT22;619;51.472;6.628;2022-12-18T18:58:18;6.50;64.80
1259;DHT22;619;51.472;6.628;2022-12-18T19:00:44;6.50;64.90
1259;DHT22;619;51.472;6.628;2022-12-18T19:03:10;6.60;65.00